sensor_id;sensor_type;location;lat;lon;timestamp;P1;durP1;ratioP1;P2;durP2;ratioP2
75450;SDS011;64029;48.244;9.188;2023-07-24T00:01:25;8.63;;;6.40;;
75450;SDS011;64029;48.244;9.188;2023-07-24T00:03:51;9.70;;;6.63;;
75450;SDS011;64029;48.244;9.188;2023-07-24T00:06:19;11.30;;;7.03;;
75450;SDS011;64029;48.244;9.188;2023-07-24T00:08:46;10.77;;;6.50;;
75450;SDS011;64029;48.244;9.188;2023-07-24T00:11:13;11.50;;;6.50;;
75450;SDS011;64029;48.244;9.188;2023-07-24T00:13:41;10.50;;;7.07;;
75450;SDS011;64029;48.244;9.188;2023-07-24T00:16:08;9.30;;;6.00;;
75450;SDS011;64029;48.244;9.188;2023-07-24T00:18:36;9.60;;;6.50;;
75450;SDS011;64029;48.244;9.188;2023-07-24T00:21:02;10.10;;;7.13;;
75450;SDS011;64029;48.244;9.188;2023-07-24T00:23:29;9.50;;;6.30;;
75450;SDS011;64029;48.244;9.188;2023-07-24T00:25:56;9.47;;;6.53;;
75450;SDS011;64029;48.244;9.188;2023-07-24T00:28:23;8.87;;;6.30;;
75450;SDS011;64029;48.244;9.188;2023-07-24T00:30:51;10.10;;;6.37;;
75450;SDS011;64029;48.244;9.188;2023-07-24T00:33:18;8.50;;;6.23;;
75450;SDS011;64029;48.244;9.188;2023-07-24T00:35:45;9.60;;;6.23;;
75450;SDS011;64029;48.244;9.188;2023-07-24T00:38:12;12.13;;;6.70;;
75450;SDS011;64029;48.244;9.188;2023-07-24T00:40:39;10.70;;;6.03;;
75450;SDS011;64029;48.244;9.188;2023-07-24T00:43:06;10.53;;;7.30;;
75450;SDS011;64029;48.244;9.188;2023-07-24T00:45:32;10.97;;;6.07;;
75450;SDS011;64029;48.244;9.188;2023-07-24T00:48:01;9.70;;;6.60;;
75450;SDS011;64029;48.244;9.188;2023-07-24T00:50:28;10.00;;;6.87;;
75450;SDS011;64029;48.244;9.188;2023-07-24T00:52:56;9.77;;;6.90;;
75450;SDS011;64029;48.244;9.188;2023-07-24T00:55:24;13.67;;;7.93;;
75450;SDS011;64029;48.244;9.188;2023-07-24T00:57:51;10.13;;;6.70;;
75450;SDS011;64029;48.244;9.188;2023-07-24T01:00:18;9.80;;;6.10;;
75450;SDS011;64029;48.244;9.188;2023-07-24T01:02:45;9.47;;;6.43;;
75450;SDS011;64029;48.244;9.188;2023-07-24T01:05:13;9.63;;;6.37;;
75450;SDS011;64029;48.244;9.188;2023-07-24T01:07:40;9.87;;;6.03;;
75450;SDS011;64029;48.244;9.188;2023-07-24T01:10:08;13.50;;;6.80;;
75450;SDS011;64029;48.244;9.188;2023-07-24T01:12:35;11.17;;;7.10;;
75450;SDS011;64029;48.244;9.188;2023-07-24T01:15:08;12.93;;;7.23;;
75450;SDS011;64029;48.244;9.188;2023-07-24T01:17:42;7.87;;;5.40;;
75450;SDS011;64029;48.244;9.188;2023-07-24T01:20:14;11.87;;;7.50;;
75450;SDS011;64029;48.244;9.188;2023-07-24T01:22:46;10.20;;;7.63;;
75450;SDS011;64029;48.244;9.188;2023-07-24T01:25:27;9.67;;;6.73;;
75450;SDS011;64029;48.244;9.188;2023-07-24T01:28:05;11.07;;;6.77;;
75450;SDS011;64029;48.244;9.188;2023-07-24T01:30:33;9.70;;;6.87;;
75450;SDS011;64029;48.244;9.188;2023-07-24T01:33:00;10.70;;;6.80;;
75450;SDS011;64029;48.244;9.188;2023-07-24T01:35:27;11.30;;;6.50;;
75450;SDS011;64029;48.244;9.188;2023-07-24T01:37:54;9.90;;;6.50;;
75450;SDS011;64029;48.244;9.188;2023-07-24T01:40:23;10.90;;;6.67;;
75450;SDS011;64029;48.244;9.188;2023-07-24T01:42:50;12.90;;;6.40;;
75450;SDS011;64029;48.244;9.188;2023-07-24T01:45:19;10.77;;;6.60;;
75450;SDS011;64029;48.244;9.188;2023-07-24T01:47:46;8.90;;;6.87;;
75450;SDS011;64029;48.244;9.188;2023-07-24T01:50:12;11.63;;;7.73;;
75450;SDS011;64029;48.244;9.188;2023-07-24T01:52:39;13.10;;;7.20;;
75450;SDS011;64029;48.244;9.188;2023-07-24T01:55:07;10.80;;;7.07;;
75450;SDS011;64029;48.244;9.188;2023-07-24T01:57:34;12.33;;;6.53;;
75450;SDS011;64029;48.244;9.188;2023-07-24T02:00:01;10.37;;;7.10;;
75450;SDS011;64029;48.244;9.188;2023-07-24T02:02:30;12.87;;;6.90;;
75450;SDS011;64029;48.244;9.188;2023-07-24T02:04:57;16.23;;;7.70;;
75450;SDS011;64029;48.244;9.188;2023-07-24T02:07:23;11.03;;;6.40;;
75450;SDS011;64029;48.244;9.188;2023-07-24T02:09:50;9.60;;;6.80;;
75450;SDS011;64029;48.244;9.188;2023-07-24T02:12:17;13.83;;;6.37;;
75450;SDS011;64029;48.244;9.188;2023-07-24T02:14:44;18.03;;;7.13;;
75450;SDS011;64029;48.244;9.188;2023-07-24T02:17:14;13.13;;;7.00;;
75450;SDS011;64029;48.244;9.188;2023-07-24T02:19:43;12.40;;;7.27;;
75450;SDS011;64029;48.244;9.188;2023-07-24T02:22:10;10.10;;;7.20;;
75450;SDS011;64029;48.244;9.188;2023-07-24T02:24:37;12.27;;;7.90;;
75450;SDS011;64029;48.244;9.188;2023-07-24T02:27:04;11.70;;;7.40;;
75450;SDS011;64029;48.244;9.188;2023-07-24T02:29:31;10.23;;;6.60;;
75450;SDS011;64029;48.244;9.188;2023-07-24T02:31:58;9.10;;;6.73;;
75450;SDS011;64029;48.244;9.188;2023-07-24T02:34:25;13.80;;;8.07;;
75450;SDS011;64029;48.244;9.188;2023-07-24T02:36:54;11.10;;;7.37;;
75450;SDS011;64029;48.244;9.188;2023-07-24T02:39:21;11.90;;;7.17;;
75450;SDS011;64029;48.244;9.188;2023-07-24T02:41:48;9.83;;;6.90;;
75450;SDS011;64029;48.244;9.188;2023-07-24T02:44:15;12.90;;;7.90;;
75450;SDS011;64029;48.244;9.188;2023-07-24T02:46:42;10.73;;;6.60;;
75450;SDS011;64029;48.244;9.188;2023-07-24T02:49:09;11.90;;;7.43;;
75450;SDS011;64029;48.244;9.188;2023-07-24T02:51:36;11.40;;;7.00;;
75450;SDS011;64029;48.244;9.188;2023-07-24T02:54:04;10.90;;;6.93;;
75450;SDS011;64029;48.244;9.188;2023-07-24T02:56:32;13.07;;;6.67;;
75450;SDS011;64029;48.244;9.188;2023-07-24T02:58:59;9.70;;;6.80;;
75450;SDS011;64029;48.244;9.188;2023-07-24T03:01:25;14.90;;;7.30;;
75450;SDS011;64029;48.244;9.188;2023-07-24T03:03:52;10.93;;;7.00;;
75450;SDS011;64029;48.244;9.188;2023-07-24T03:06:19;14.00;;;8.33;;
75450;SDS011;64029;48.244;9.188;2023-07-24T03:08:46;10.13;;;7.30;;
75450;SDS011;64029;48.244;9.188;2023-07-24T03:11:14;9.30;;;6.63;;
75450;SDS011;64029;48.244;9.188;2023-07-24T03:13:41;10.37;;;5.60;;
75450;SDS011;64029;48.244;9.188;2023-07-24T03:16:08;12.17;;;6.80;;
75450;SDS011;64029;48.244;9.188;2023-07-24T03:18:35;11.00;;;7.03;;
75450;SDS011;64029;48.244;9.188;2023-07-24T03:21:02;10.63;;;7.43;;
75450;SDS011;64029;48.244;9.188;2023-07-24T03:23:29;12.30;;;6.90;;
75450;SDS011;64029;48.244;9.188;2023-07-24T03:25:56;11.97;;;7.10;;
75450;SDS011;64029;48.244;9.188;2023-07-24T03:28:25;9.70;;;6.87;;
75450;SDS011;64029;48.244;9.188;2023-07-24T03:30:52;9.73;;;6.47;;
75450;SDS011;64029;48.244;9.188;2023-07-24T03:33:19;8.73;;;5.93;;
75450;SDS011;64029;48.244;9.188;2023-07-24T03:35:46;7.97;;;6.00;;
75450;SDS011;64029;48.244;9.188;2023-07-24T03:38:13;9.40;;;6.83;;
75450;SDS011;64029;48.244;9.188;2023-07-24T03:40:40;9.30;;;6.00;;
75450;SDS011;64029;48.244;9.188;2023-07-24T03:43:06;11.00;;;6.70;;
75450;SDS011;64029;48.244;9.188;2023-07-24T03:45:35;10.47;;;6.40;;
75450;SDS011;64029;48.244;9.188;2023-07-24T03:48:02;9.40;;;6.37;;
75450;SDS011;64029;48.244;9.188;2023-07-24T03:50:29;10.43;;;6.13;;
75450;SDS011;64029;48.244;9.188;2023-07-24T03:52:56;9.40;;;5.87;;
75450;SDS011;64029;48.244;9.188;2023-07-24T03:55:23;8.10;;;5.57;;
75450;SDS011;64029;48.244;9.188;2023-07-24T03:57:50;8.73;;;6.07;;
75450;SDS011;64029;48.244;9.188;2023-07-24T04:00:17;11.00;;;6.60;;
75450;SDS011;64029;48.244;9.188;2023-07-24T04:02:46;9.93;;;5.63;;
75450;SDS011;64029;48.244;9.188;2023-07-24T04:05:13;10.07;;;6.40;;
75450;SDS011;64029;48.244;9.188;2023-07-24T04:07:40;10.23;;;6.13;;
75450;SDS011;64029;48.244;9.188;2023-07-24T04:10:07;9.80;;;6.73;;
75450;SDS011;64029;48.244;9.188;2023-07-24T04:12:34;10.10;;;6.77;;
75450;SDS011;64029;48.244;9.188;2023-07-24T04:15:01;9.90;;;6.50;;
75450;SDS011;64029;48.244;9.188;2023-07-24T04:17:28;12.60;;;6.73;;
75450;SDS011;64029;48.244;9.188;2023-07-24T04:19:56;11.13;;;6.80;;
75450;SDS011;64029;48.244;9.188;2023-07-24T04:22:23;10.30;;;6.27;;
75450;SDS011;64029;48.244;9.188;2023-07-24T04:24:51;11.27;;;6.93;;
75450;SDS011;64029;48.244;9.188;2023-07-24T04:27:18;10.70;;;7.00;;
75450;SDS011;64029;48.244;9.188;2023-07-24T04:29:45;10.13;;;6.70;;
75450;SDS011;64029;48.244;9.188;2023-07-24T04:32:11;9.80;;;6.03;;
75450;SDS011;64029;48.244;9.188;2023-07-24T04:34:38;12.10;;;7.27;;
75450;SDS011;64029;48.244;9.188;2023-07-24T04:37:07;11.33;;;7.00;;
75450;SDS011;64029;48.244;9.188;2023-07-24T04:39:33;11.30;;;7.50;;
75450;SDS011;64029;48.244;9.188;2023-07-24T04:42:00;11.83;;;6.67;;
75450;SDS011;64029;48.244;9.188;2023-07-24T04:44:27;10.03;;;6.70;;
75450;SDS011;64029;48.244;9.188;2023-07-24T04:46:54;9.37;;;6.37;;
75450;SDS011;64029;48.244;9.188;2023-07-24T04:49:21;12.33;;;8.10;;
75450;SDS011;64029;48.244;9.188;2023-07-24T04:51:48;11.03;;;7.50;;
75450;SDS011;64029;48.244;9.188;2023-07-24T04:54:16;14.13;;;7.70;;
75450;SDS011;64029;48.244;9.188;2023-07-24T04:56:44;13.93;;;7.40;;
75450;SDS011;64029;48.244;9.188;2023-07-24T04:59:11;9.43;;;6.30;;
75450;SDS011;64029;48.244;9.188;2023-07-24T05:01:37;10.20;;;6.27;;
75450;SDS011;64029;48.244;9.188;2023-07-24T05:04:04;9.27;;;6.60;;
75450;SDS011;64029;48.244;9.188;2023-07-24T05:06:31;11.77;;;7.60;;
75450;SDS011;64029;48.244;9.188;2023-07-24T05:09:00;10.50;;;7.53;;
75450;SDS011;64029;48.244;9.188;2023-07-24T05:11:28;11.00;;;6.60;;
75450;SDS011;64029;48.244;9.188;2023-07-24T05:13:55;12.77;;;7.13;;
75450;SDS011;64029;48.244;9.188;2023-07-24T05:16:22;12.27;;;7.70;;
75450;SDS011;64029;48.244;9.188;2023-07-24T05:18:49;11.40;;;7.50;;
75450;SDS011;64029;48.244;9.188;2023-07-24T05:21:16;11.70;;;6.57;;
75450;SDS011;64029;48.244;9.188;2023-07-24T05:23:43;10.83;;;6.80;;
75450;SDS011;64029;48.244;9.188;2023-07-24T05:26:09;9.63;;;6.80;;
75450;SDS011;64029;48.244;9.188;2023-07-24T05:28:38;12.77;;;7.30;;
75450;SDS011;64029;48.244;9.188;2023-07-24T05:31:04;10.03;;;7.07;;
75450;SDS011;64029;48.244;9.188;2023-07-24T05:33:33;11.90;;;6.97;;
75450;SDS011;64029;48.244;9.188;2023-07-24T05:35:59;12.10;;;6.90;;
75450;SDS011;64029;48.244;9.188;2023-07-24T05:38:27;10.50;;;6.83;;
75450;SDS011;64029;48.244;9.188;2023-07-24T05:40:54;9.77;;;6.60;;
75450;SDS011;64029;48.244;9.188;2023-07-24T05:43:21;11.47;;;7.47;;
75450;SDS011;64029;48.244;9.188;2023-07-24T05:45:50;10.87;;;7.47;;
75450;SDS011;64029;48.244;9.188;2023-07-24T05:48:17;11.70;;;7.80;;
75450;SDS011;64029;48.244;9.188;2023-07-24T05:50:44;11.23;;;6.80;;
75450;SDS011;64029;48.244;9.188;2023-07-24T05:53:10;11.77;;;7.40;;
75450;SDS011;64029;48.244;9.188;2023-07-24T05:55:37;11.03;;;7.13;;
75450;SDS011;64029;48.244;9.188;2023-07-24T05:58:04;10.03;;;6.93;;
75450;SDS011;64029;48.244;9.188;2023-07-24T06:00:31;12.57;;;7.20;;
75450;SDS011;64029;48.244;9.188;2023-07-24T06:02:59;10.00;;;6.63;;
75450;SDS011;64029;48.244;9.188;2023-07-24T06:05:26;10.93;;;7.97;;
75450;SDS011;64029;48.244;9.188;2023-07-24T06:07:54;11.50;;;7.60;;
75450;SDS011;64029;48.244;9.188;2023-07-24T06:10:21;11.50;;;7.63;;
75450;SDS011;64029;48.244;9.188;2023-07-24T06:12:48;11.20;;;7.60;;
75450;SDS011;64029;48.244;9.188;2023-07-24T06:15:14;11.57;;;7.30;;
75450;SDS011;64029;48.244;9.188;2023-07-24T06:17:41;11.17;;;7.47;;
75450;SDS011;64029;48.244;9.188;2023-07-24T06:20:10;10.70;;;7.50;;
75450;SDS011;64029;48.244;9.188;2023-07-24T06:22:37;10.67;;;7.40;;
75450;SDS011;64029;48.244;9.188;2023-07-24T06:25:04;10.03;;;8.00;;
75450;SDS011;64029;48.244;9.188;2023-07-24T06:27:32;10.27;;;8.03;;
75450;SDS011;64029;48.244;9.188;2023-07-24T06:29:58;10.80;;;7.37;;
75450;SDS011;64029;48.244;9.188;2023-07-24T06:32:25;11.07;;;7.47;;
75450;SDS011;64029;48.244;9.188;2023-07-24T06:34:52;11.23;;;7.53;;
75450;SDS011;64029;48.244;9.188;2023-07-24T06:37:21;14.00;;;8.17;;
75450;SDS011;64029;48.244;9.188;2023-07-24T06:39:47;13.60;;;8.53;;
75450;SDS011;64029;48.244;9.188;2023-07-24T06:42:14;9.10;;;6.43;;
75450;SDS011;64029;48.244;9.188;2023-07-24T06:44:41;10.20;;;7.43;;
75450;SDS011;64029;48.244;9.188;2023-07-24T06:47:08;11.63;;;8.17;;
75450;SDS011;64029;48.244;9.188;2023-07-24T06:49:35;14.43;;;8.40;;
75450;SDS011;64029;48.244;9.188;2023-07-24T06:52:02;9.63;;;6.83;;
75450;SDS011;64029;48.244;9.188;2023-07-24T06:54:31;9.90;;;7.13;;
75450;SDS011;64029;48.244;9.188;2023-07-24T06:56:57;13.17;;;8.30;;
75450;SDS011;64029;48.244;9.188;2023-07-24T06:59:24;12.17;;;8.30;;
75450;SDS011;64029;48.244;9.188;2023-07-24T07:01:51;11.30;;;7.23;;
75450;SDS011;64029;48.244;9.188;2023-07-24T07:04:18;11.33;;;6.93;;
75450;SDS011;64029;48.244;9.188;2023-07-24T07:06:45;9.63;;;7.67;;
75450;SDS011;64029;48.244;9.188;2023-07-24T07:09:12;12.70;;;8.37;;
75450;SDS011;64029;48.244;9.188;2023-07-24T07:11:40;11.70;;;8.10;;
75450;SDS011;64029;48.244;9.188;2023-07-24T07:14:08;9.63;;;7.07;;
75450;SDS011;64029;48.244;9.188;2023-07-24T07:16:35;9.13;;;6.87;;
75450;SDS011;64029;48.244;9.188;2023-07-24T07:19:02;12.53;;;7.50;;
75450;SDS011;64029;48.244;9.188;2023-07-24T07:21:28;9.50;;;7.63;;
75450;SDS011;64029;48.244;9.188;2023-07-24T07:23:55;13.20;;;7.03;;
75450;SDS011;64029;48.244;9.188;2023-07-24T07:26:22;9.37;;;7.17;;
75450;SDS011;64029;48.244;9.188;2023-07-24T07:28:51;10.70;;;7.30;;
75450;SDS011;64029;48.244;9.188;2023-07-24T07:31:18;9.70;;;6.80;;
75450;SDS011;64029;48.244;9.188;2023-07-24T07:33:45;9.50;;;7.43;;
75450;SDS011;64029;48.244;9.188;2023-07-24T07:36:12;12.50;;;7.80;;
75450;SDS011;64029;48.244;9.188;2023-07-24T07:38:38;11.70;;;7.60;;
75450;SDS011;64029;48.244;9.188;2023-07-24T07:41:05;9.57;;;6.60;;
75450;SDS011;64029;48.244;9.188;2023-07-24T07:43:33;9.57;;;6.70;;
75450;SDS011;64029;48.244;9.188;2023-07-24T07:46:02;10.53;;;6.90;;
75450;SDS011;64029;48.244;9.188;2023-07-24T07:48:29;9.73;;;6.30;;
75450;SDS011;64029;48.244;9.188;2023-07-24T07:50:57;8.37;;;6.27;;
75450;SDS011;64029;48.244;9.188;2023-07-24T07:53:24;8.70;;;5.60;;
75450;SDS011;64029;48.244;9.188;2023-07-24T07:55:57;7.50;;;6.13;;
75450;SDS011;64029;48.244;9.188;2023-07-24T07:58:24;8.43;;;6.00;;
75450;SDS011;64029;48.244;9.188;2023-07-24T08:00:51;5.97;;;5.13;;
75450;SDS011;64029;48.244;9.188;2023-07-24T08:03:19;8.90;;;6.10;;
75450;SDS011;64029;48.244;9.188;2023-07-24T08:05:46;8.40;;;6.03;;
75450;SDS011;64029;48.244;9.188;2023-07-24T08:08:13;7.20;;;5.90;;
75450;SDS011;64029;48.244;9.188;2023-07-24T08:10:40;10.83;;;6.07;;
75450;SDS011;64029;48.244;9.188;2023-07-24T08:13:07;7.73;;;6.00;;
75450;SDS011;64029;48.244;9.188;2023-07-24T08:15:34;8.70;;;5.73;;
75450;SDS011;64029;48.244;9.188;2023-07-24T08:18:02;6.70;;;5.43;;
75450;SDS011;64029;48.244;9.188;2023-07-24T08:20:30;9.47;;;6.00;;
75450;SDS011;64029;48.244;9.188;2023-07-24T08:22:58;10.40;;;6.53;;
75450;SDS011;64029;48.244;9.188;2023-07-24T08:25:25;8.50;;;5.83;;
75450;SDS011;64029;48.244;9.188;2023-07-24T08:27:51;8.47;;;6.00;;
75450;SDS011;64029;48.244;9.188;2023-07-24T08:30:18;8.50;;;5.50;;
75450;SDS011;64029;48.244;9.188;2023-07-24T08:32:45;7.83;;;5.60;;
75450;SDS011;64029;48.244;9.188;2023-07-24T08:35:15;8.87;;;6.07;;
75450;SDS011;64029;48.244;9.188;2023-07-24T08:37:43;7.50;;;5.83;;
75450;SDS011;64029;48.244;9.188;2023-07-24T08:40:11;7.73;;;5.20;;
75450;SDS011;64029;48.244;9.188;2023-07-24T08:42:38;6.40;;;5.70;;
75450;SDS011;64029;48.244;9.188;2023-07-24T08:45:08;6.77;;;4.60;;
75450;SDS011;64029;48.244;9.188;2023-07-24T08:47:39;6.70;;;5.30;;
75450;SDS011;64029;48.244;9.188;2023-07-24T08:50:08;6.97;;;5.10;;
75450;SDS011;64029;48.244;9.188;2023-07-24T08:52:36;5.50;;;4.77;;
75450;SDS011;64029;48.244;9.188;2023-07-24T08:55:05;5.83;;;5.00;;
75450;SDS011;64029;48.244;9.188;2023-07-24T08:57:32;7.83;;;5.40;;
75450;SDS011;64029;48.244;9.188;2023-07-24T08:59:59;7.90;;;5.30;;
75450;SDS011;64029;48.244;9.188;2023-07-24T09:02:29;7.87;;;4.90;;
75450;SDS011;64029;48.244;9.188;2023-07-24T09:04:57;10.00;;;5.10;;
75450;SDS011;64029;48.244;9.188;2023-07-24T09:07:24;5.83;;;4.57;;
75450;SDS011;64029;48.244;9.188;2023-07-24T09:09:51;5.43;;;4.80;;
75450;SDS011;64029;48.244;9.188;2023-07-24T09:12:21;8.27;;;5.30;;
75450;SDS011;64029;48.244;9.188;2023-07-24T09:14:48;10.67;;;5.70;;
75450;SDS011;64029;48.244;9.188;2023-07-24T09:17:15;7.30;;;5.17;;
75450;SDS011;64029;48.244;9.188;2023-07-24T09:19:42;9.07;;;5.00;;
75450;SDS011;64029;48.244;9.188;2023-07-24T09:22:10;6.33;;;5.27;;
75450;SDS011;64029;48.244;9.188;2023-07-24T09:24:48;8.50;;;6.07;;
75450;SDS011;64029;48.244;9.188;2023-07-24T09:27:16;7.33;;;5.43;;
75450;SDS011;64029;48.244;9.188;2023-07-24T09:29:44;7.73;;;5.17;;
75450;SDS011;64029;48.244;9.188;2023-07-24T09:32:18;9.80;;;5.63;;
75450;SDS011;64029;48.244;9.188;2023-07-24T09:34:46;7.43;;;5.50;;
75450;SDS011;64029;48.244;9.188;2023-07-24T09:37:22;8.90;;;6.50;;
75450;SDS011;64029;48.244;9.188;2023-07-24T09:39:50;8.07;;;6.30;;
75450;SDS011;64029;48.244;9.188;2023-07-24T09:42:17;7.10;;;5.43;;
75450;SDS011;64029;48.244;9.188;2023-07-24T09:44:45;6.63;;;5.43;;
75450;SDS011;64029;48.244;9.188;2023-07-24T09:47:12;8.93;;;5.73;;
75450;SDS011;64029;48.244;9.188;2023-07-24T09:49:40;11.20;;;6.30;;
75450;SDS011;64029;48.244;9.188;2023-07-24T09:52:07;5.93;;;5.00;;
75450;SDS011;64029;48.244;9.188;2023-07-24T09:54:37;8.73;;;5.30;;
75450;SDS011;64029;48.244;9.188;2023-07-24T09:57:12;8.37;;;5.60;;
75450;SDS011;64029;48.244;9.188;2023-07-24T09:59:40;6.67;;;5.27;;
75450;SDS011;64029;48.244;9.188;2023-07-24T10:02:10;8.63;;;5.80;;
75450;SDS011;64029;48.244;9.188;2023-07-24T10:04:38;10.80;;;6.10;;
75450;SDS011;64029;48.244;9.188;2023-07-24T10:07:06;9.20;;;5.70;;
75450;SDS011;64029;48.244;9.188;2023-07-24T10:09:33;8.00;;;5.57;;
75450;SDS011;64029;48.244;9.188;2023-07-24T10:12:02;8.57;;;6.27;;
75450;SDS011;64029;48.244;9.188;2023-07-24T10:14:29;7.07;;;5.53;;
75450;SDS011;64029;48.244;9.188;2023-07-24T10:16:56;7.27;;;5.33;;
75450;SDS011;64029;48.244;9.188;2023-07-24T10:19:25;7.37;;;5.57;;
75450;SDS011;64029;48.244;9.188;2023-07-24T10:22:02;9.00;;;6.63;;
75450;SDS011;64029;48.244;9.188;2023-07-24T10:24:29;7.47;;;5.73;;
75450;SDS011;64029;48.244;9.188;2023-07-24T10:26:56;7.97;;;6.00;;
75450;SDS011;64029;48.244;9.188;2023-07-24T10:29:23;8.27;;;6.10;;
75450;SDS011;64029;48.244;9.188;2023-07-24T10:31:54;9.33;;;5.70;;
75450;SDS011;64029;48.244;9.188;2023-07-24T10:34:21;8.20;;;5.77;;
75450;SDS011;64029;48.244;9.188;2023-07-24T10:36:49;8.03;;;5.27;;
75450;SDS011;64029;48.244;9.188;2023-07-24T10:39:16;8.20;;;5.20;;
75450;SDS011;64029;48.244;9.188;2023-07-24T10:41:45;8.70;;;4.90;;
75450;SDS011;64029;48.244;9.188;2023-07-24T10:44:12;8.87;;;5.20;;
75450;SDS011;64029;48.244;9.188;2023-07-24T10:46:40;7.60;;;4.83;;
75450;SDS011;64029;48.244;9.188;2023-07-24T10:49:08;8.53;;;4.47;;
75450;SDS011;64029;48.244;9.188;2023-07-24T10:51:35;6.80;;;4.40;;
75450;SDS011;64029;48.244;9.188;2023-07-24T10:54:04;6.13;;;4.73;;
75450;SDS011;64029;48.244;9.188;2023-07-24T10:56:32;6.83;;;4.23;;
75450;SDS011;64029;48.244;9.188;2023-07-24T10:59:02;7.30;;;4.53;;
75450;SDS011;64029;48.244;9.188;2023-07-24T11:01:30;7.13;;;5.07;;
75450;SDS011;64029;48.244;9.188;2023-07-24T11:03:58;9.50;;;4.73;;
75450;SDS011;64029;48.244;9.188;2023-07-24T11:06:25;9.30;;;5.43;;
75450;SDS011;64029;48.244;9.188;2023-07-24T11:08:53;7.30;;;4.90;;
75450;SDS011;64029;48.244;9.188;2023-07-24T11:11:25;7.70;;;5.27;;
75450;SDS011;64029;48.244;9.188;2023-07-24T11:13:55;7.17;;;4.33;;
75450;SDS011;64029;48.244;9.188;2023-07-24T11:16:22;5.77;;;4.50;;
75450;SDS011;64029;48.244;9.188;2023-07-24T11:18:50;8.00;;;5.40;;
75450;SDS011;64029;48.244;9.188;2023-07-24T11:21:18;9.87;;;5.23;;
75450;SDS011;64029;48.244;9.188;2023-07-24T11:23:46;6.20;;;4.43;;
75450;SDS011;64029;48.244;9.188;2023-07-24T11:26:14;8.17;;;4.87;;
75450;SDS011;64029;48.244;9.188;2023-07-24T11:28:45;5.90;;;4.50;;
75450;SDS011;64029;48.244;9.188;2023-07-24T11:31:12;9.30;;;4.90;;
75450;SDS011;64029;48.244;9.188;2023-07-24T11:33:40;5.70;;;4.30;;
75450;SDS011;64029;48.244;9.188;2023-07-24T11:36:09;6.87;;;4.50;;
75450;SDS011;64029;48.244;9.188;2023-07-24T11:38:36;7.90;;;4.87;;
75450;SDS011;64029;48.244;9.188;2023-07-24T11:41:04;7.07;;;4.73;;
75450;SDS011;64029;48.244;9.188;2023-07-24T11:43:31;9.00;;;4.60;;
75450;SDS011;64029;48.244;9.188;2023-07-24T11:45:59;5.90;;;4.63;;
75450;SDS011;64029;48.244;9.188;2023-07-24T11:48:26;5.70;;;4.43;;
75450;SDS011;64029;48.244;9.188;2023-07-24T11:50:54;7.83;;;4.33;;
75450;SDS011;64029;48.244;9.188;2023-07-24T11:53:22;7.03;;;4.50;;
75450;SDS011;64029;48.244;9.188;2023-07-24T11:55:50;5.87;;;4.07;;
75450;SDS011;64029;48.244;9.188;2023-07-24T11:58:18;10.10;;;4.90;;
75450;SDS011;64029;48.244;9.188;2023-07-24T12:00:45;6.97;;;4.13;;
75450;SDS011;64029;48.244;9.188;2023-07-24T12:03:14;5.73;;;4.07;;
75450;SDS011;64029;48.244;9.188;2023-07-24T12:05:45;6.00;;;3.90;;
75450;SDS011;64029;48.244;9.188;2023-07-24T12:08:17;5.50;;;4.10;;
75450;SDS011;64029;48.244;9.188;2023-07-24T12:10:48;10.20;;;4.60;;
75450;SDS011;64029;48.244;9.188;2023-07-24T12:13:15;6.07;;;4.10;;
75450;SDS011;64029;48.244;9.188;2023-07-24T12:15:42;3.90;;;3.30;;
75450;SDS011;64029;48.244;9.188;2023-07-24T12:18:09;6.03;;;3.60;;
75450;SDS011;64029;48.244;9.188;2023-07-24T12:20:38;5.03;;;3.80;;
75450;SDS011;64029;48.244;9.188;2023-07-24T12:23:05;6.83;;;4.30;;
75450;SDS011;64029;48.244;9.188;2023-07-24T12:25:32;9.13;;;4.63;;
75450;SDS011;64029;48.244;9.188;2023-07-24T12:28:00;5.67;;;4.07;;
75450;SDS011;64029;48.244;9.188;2023-07-24T12:30:27;9.40;;;4.40;;
75450;SDS011;64029;48.244;9.188;2023-07-24T12:32:54;4.77;;;4.23;;
75450;SDS011;64029;48.244;9.188;2023-07-24T12:35:21;6.47;;;3.80;;
75450;SDS011;64029;48.244;9.188;2023-07-24T12:37:50;8.07;;;4.77;;
75450;SDS011;64029;48.244;9.188;2023-07-24T12:40:16;5.37;;;4.20;;
75450;SDS011;64029;48.244;9.188;2023-07-24T12:42:43;6.53;;;4.60;;
75450;SDS011;64029;48.244;9.188;2023-07-24T12:45:10;5.30;;;4.10;;
75450;SDS011;64029;48.244;9.188;2023-07-24T12:47:37;6.83;;;4.10;;
75450;SDS011;64029;48.244;9.188;2023-07-24T12:50:05;5.53;;;4.47;;
75450;SDS011;64029;48.244;9.188;2023-07-24T12:52:32;5.00;;;3.90;;
75450;SDS011;64029;48.244;9.188;2023-07-24T12:55:00;6.77;;;4.90;;
75450;SDS011;64029;48.244;9.188;2023-07-24T12:57:27;6.40;;;4.60;;
75450;SDS011;64029;48.244;9.188;2023-07-24T12:59:54;6.33;;;4.53;;
75450;SDS011;64029;48.244;9.188;2023-07-24T13:02:21;6.33;;;3.97;;
75450;SDS011;64029;48.244;9.188;2023-07-24T13:04:48;5.87;;;4.20;;
75450;SDS011;64029;48.244;9.188;2023-07-24T13:07:15;5.90;;;4.10;;
75450;SDS011;64029;48.244;9.188;2023-07-24T13:09:42;6.03;;;4.17;;
75450;SDS011;64029;48.244;9.188;2023-07-24T13:12:11;7.03;;;4.00;;
75450;SDS011;64029;48.244;9.188;2023-07-24T13:14:38;5.03;;;3.70;;
75450;SDS011;64029;48.244;9.188;2023-07-24T13:17:05;6.00;;;4.10;;
75450;SDS011;64029;48.244;9.188;2023-07-24T13:19:32;4.03;;;3.17;;
75450;SDS011;64029;48.244;9.188;2023-07-24T13:21:59;6.00;;;4.07;;
75450;SDS011;64029;48.244;9.188;2023-07-24T13:24:26;5.70;;;3.93;;
75450;SDS011;64029;48.244;9.188;2023-07-24T13:26:53;5.60;;;3.77;;
75450;SDS011;64029;48.244;9.188;2023-07-24T13:29:21;6.70;;;3.93;;
75450;SDS011;64029;48.244;9.188;2023-07-24T13:31:49;5.03;;;3.70;;
75450;SDS011;64029;48.244;9.188;2023-07-24T13:34:17;7.40;;;4.10;;
75450;SDS011;64029;48.244;9.188;2023-07-24T13:36:44;4.50;;;3.70;;
75450;SDS011;64029;48.244;9.188;2023-07-24T13:39:12;7.20;;;4.00;;
75450;SDS011;64029;48.244;9.188;2023-07-24T13:41:39;5.83;;;3.70;;
75450;SDS011;64029;48.244;9.188;2023-07-24T13:44:06;4.73;;;4.00;;
75450;SDS011;64029;48.244;9.188;2023-07-24T13:46:34;6.43;;;3.80;;
75450;SDS011;64029;48.244;9.188;2023-07-24T13:49:01;7.57;;;3.87;;
75450;SDS011;64029;48.244;9.188;2023-07-24T13:51:28;5.97;;;4.53;;
75450;SDS011;64029;48.244;9.188;2023-07-24T13:53:55;6.77;;;4.27;;
75450;SDS011;64029;48.244;9.188;2023-07-24T13:56:22;6.40;;;4.23;;
75450;SDS011;64029;48.244;9.188;2023-07-24T13:58:49;6.13;;;4.13;;
75450;SDS011;64029;48.244;9.188;2023-07-24T14:01:16;7.33;;;4.17;;
75450;SDS011;64029;48.244;9.188;2023-07-24T14:03:46;5.70;;;3.87;;
75450;SDS011;64029;48.244;9.188;2023-07-24T14:06:13;7.17;;;3.63;;
75450;SDS011;64029;48.244;9.188;2023-07-24T14:08:39;5.53;;;3.90;;
75450;SDS011;64029;48.244;9.188;2023-07-24T14:11:06;6.70;;;4.27;;
75450;SDS011;64029;48.244;9.188;2023-07-24T14:13:33;5.97;;;3.93;;
75450;SDS011;64029;48.244;9.188;2023-07-24T14:16:00;7.00;;;3.70;;
75450;SDS011;64029;48.244;9.188;2023-07-24T14:18:27;5.17;;;3.70;;
75450;SDS011;64029;48.244;9.188;2023-07-24T14:20:55;5.53;;;3.70;;
75450;SDS011;64029;48.244;9.188;2023-07-24T14:23:24;5.43;;;3.73;;
75450;SDS011;64029;48.244;9.188;2023-07-24T14:25:51;7.00;;;3.43;;
75450;SDS011;64029;48.244;9.188;2023-07-24T14:28:18;4.70;;;3.63;;
75450;SDS011;64029;48.244;9.188;2023-07-24T14:30:45;6.43;;;3.47;;
75450;SDS011;64029;48.244;9.188;2023-07-24T14:33:12;4.63;;;3.47;;
75450;SDS011;64029;48.244;9.188;2023-07-24T14:35:39;5.20;;;2.83;;
75450;SDS011;64029;48.244;9.188;2023-07-24T14:38:08;4.17;;;3.47;;
75450;SDS011;64029;48.244;9.188;2023-07-24T14:40:35;4.27;;;3.10;;
75450;SDS011;64029;48.244;9.188;2023-07-24T14:43:02;4.17;;;3.77;;
75450;SDS011;64029;48.244;9.188;2023-07-24T14:45:28;5.20;;;4.53;;